Time;durP1;ratioP1;P1;durP2;ratioP2;P2;SDS_P1;SDS_P2;PMS_P1;PMS_P2;Temp;Humidity;BMP_temperature;BMP_pressure;BME280_temperature;BME280_humidity;BME280_pressure;Samples;Min_cycle;Max_cycle;Signal;HPM_P1;HPM_P2
2022/04/07 00:00:21;;;;;;;8.10;5.93;;;;;;;;;;6198205;22;20023;-90
2022/04/07 00:02:49;;;;;;;8.93;5.60;;;;;;;;;;6198376;22;20024;-91
2022/04/07 00:05:17;;;;;;;7.97;5.32;;;;;;;;;;6226165;22;20027;-90
2022/04/07 00:07:45;;;;;;;8.52;5.55;;;;;;;;;;6200331;22;20016;-90
2022/04/07 00:10:13;;;;;;;8.15;5.28;;;;;;;;;;6200799;22;20074;-91
2022/04/07 00:13:00;;;;;;;9.65;5.75;;;;;;;;;;6200616;22;20024;-90
2022/04/07 00:15:28;;;;;;;12.27;5.88;;;;;;;;;;6225450;22;20023;-90
2022/04/07 00:18:06;;;;;;;10.32;5.68;;;;;;;;;;6201540;22;20038;-91
2022/04/07 00:20:43;;;;;;;7.32;5.07;;;;;;;;;;6199241;22;20024;-91
2022/04/07 00:23:12;;;;;;;6.90;5.10;;;;;;;;;;6224571;22;20098;-90
2022/04/07 00:29:51;;;;;;;7.47;5.40;;;;;;;;;;6224986;22;20020;-91
2022/04/07 00:32:19;;;;;;;8.57;4.68;;;;;;;;;;6236226;22;20012;-90
2022/04/07 00:34:49;;;;;;;11.50;5.40;;;;;;;;;;6226000;22;20023;-90
2022/04/07 00:37:22;;;;;;;8.73;5.70;;;;;;;;;;6199224;22;20015;-91
2022/04/07 00:39:50;;;;;;;8.93;5.32;;;;;;;;;;6225081;22;20107;-91
2022/04/07 00:42:18;;;;;;;10.95;5.78;;;;;;;;;;6259091;22;20030;-91
2022/04/07 00:45:25;;;;;;;8.88;5.63;;;;;;;;;;6251880;22;20098;-90
2022/04/07 00:47:58;;;;;;;8.23;5.43;;;;;;;;;;6109344;23;20025;-91
2022/04/07 00:50:42;;;;;;;7.20;5.35;;;;;;;;;;6130817;23;20076;-91
2022/04/07 00:53:10;;;;;;;7.30;4.97;;;;;;;;;;6138157;23;20040;-91
2022/04/07 00:55:52;;;;;;;9.00;5.57;;;;;;;;;;6191663;23;20028;-91
2022/04/07 00:58:22;;;;;;;9.48;5.97;;;;;;;;;;6173744;23;20017;-91
2022/04/07 01:00:49;;;;;;;8.52;5.30;;;;;;;;;;6173700;23;20024;-91
2022/04/07 01:03:22;;;;;;;9.02;5.80;;;;;;;;;;6142458;23;20017;-91
2022/04/07 01:05:50;;;;;;;6.90;4.80;;;;;;;;;;6189172;23;20024;-91
2022/04/07 01:08:19;;;;;;;8.25;5.57;;;;;;;;;;6162458;23;20025;-91
2022/04/07 01:10:47;;;;;;;9.23;5.07;;;;;;;;;;6162612;23;20430;-91
2022/04/07 01:13:22;;;;;;;7.45;4.93;;;;;;;;;;6162770;23;20029;-91
2022/04/07 01:16:00;;;;;;;7.93;5.15;;;;;;;;;;6163932;23;20024;-91
2022/04/07 01:18:29;;;;;;;8.13;5.20;;;;;;;;;;6182661;22;20385;-91
2022/04/07 01:20:57;;;;;;;9.10;5.45;;;;;;;;;;6225104;22;20107;-90
2022/04/07 01:23:29;;;;;;;9.38;4.95;;;;;;;;;;6261703;22;20019;-91
2022/04/07 01:25:58;;;;;;;9.05;5.72;;;;;;;;;;6200851;22;20030;-91
2022/04/07 01:28:25;;;;;;;9.98;5.78;;;;;;;;;;6222762;22;20022;-91
2022/04/07 01:30:53;;;;;;;9.85;6.10;;;;;;;;;;6223973;22;20027;-91
2022/04/07 01:36:22;;;;;;;13.35;7.05;;;;;;;;;;6245662;22;20030;-91
2022/04/07 01:38:50;;;;;;;10.65;6.32;;;;;;;;;;6254709;22;20016;-90
2022/04/07 01:41:20;;;;;;;10.48;6.15;;;;;;;;;;6265022;22;19995;-90
2022/04/07 01:43:50;;;;;;;9.02;6.45;;;;;;;;;;6219571;22;20027;-91
2022/04/07 01:46:53;;;;;;;9.57;6.63;;;;;;;;;;6199213;22;20110;-91
2022/04/07 01:49:22;;;;;;;8.48;5.75;;;;;;;;;;6248825;22;20024;-91
2022/04/07 01:51:50;;;;;;;10.13;6.40;;;;;;;;;;6198486;22;20060;-91
2022/04/07 01:54:18;;;;;;;11.43;5.63;;;;;;;;;;6235154;22;20031;-90
2022/04/07 01:56:48;;;;;;;8.32;5.18;;;;;;;;;;6201065;22;20471;-90
2022/04/07 01:59:16;;;;;;;11.13;5.90;;;;;;;;;;6260241;22;20019;-91
2022/04/07 02:01:43;;;;;;;9.23;5.65;;;;;;;;;;6223964;22;20046;-91
2022/04/07 02:04:12;;;;;;;9.45;6.45;;;;;;;;;;6201638;22;20008;-91
2022/04/07 02:06:58;;;;;;;9.82;5.32;;;;;;;;;;6200739;22;20437;-91
2022/04/07 02:09:25;;;;;;;11.95;5.80;;;;;;;;;;6199633;22;20047;-91
2022/04/07 02:11:53;;;;;;;8.63;5.68;;;;;;;;;;6200149;22;20019;-91
2022/04/07 02:14:22;;;;;;;7.50;5.05;;;;;;;;;;6258420;22;20020;-91
2022/04/07 02:16:53;;;;;;;8.52;5.60;;;;;;;;;;6224134;22;20026;-91
2022/04/07 02:19:21;;;;;;;10.90;5.65;;;;;;;;;;6233841;22;20022;-91
2022/04/07 02:21:49;;;;;;;9.55;6.20;;;;;;;;;;6198820;22;20032;-91
2022/04/07 02:24:27;;;;;;;8.50;5.40;;;;;;;;;;6224051;22;20023;-91
2022/04/07 02:26:57;;;;;;;9.95;5.82;;;;;;;;;;6219184;23;20019;-90
2022/04/07 02:29:25;;;;;;;7.63;5.13;;;;;;;;;;6212393;22;20023;-91
2022/04/07 02:31:53;;;;;;;12.45;6.18;;;;;;;;;;6224209;22;20441;-91
2022/04/07 02:34:37;;;;;;;11.00;5.75;;;;;;;;;;6201602;22;20030;-90
2022/04/07 02:37:21;;;;;;;8.77;5.60;;;;;;;;;;6230467;22;20026;-91
2022/04/07 02:39:49;;;;;;;11.70;5.75;;;;;;;;;;6260539;22;20023;-91
2022/04/07 02:42:17;;;;;;;12.85;6.22;;;;;;;;;;6199384;22;20051;-90
2022/04/07 02:45:11;;;;;;;8.65;5.38;;;;;;;;;;6200749;22;20044;-91
2022/04/07 02:47:45;;;;;;;11.93;5.65;;;;;;;;;;6200756;22;20677;-91
2022/04/07 02:50:13;;;;;;;9.60;5.13;;;;;;;;;;6199549;22;20442;-91
2022/04/07 02:52:42;;;;;;;9.45;5.22;;;;;;;;;;6234939;22;20034;-91
2022/04/07 02:55:44;;;;;;;10.10;5.07;;;;;;;;;;6200091;22;20110;-91
2022/04/07 02:58:13;;;;;;;6.80;4.60;;;;;;;;;;6223015;22;20544;-91
2022/04/07 03:00:41;;;;;;;8.50;4.97;;;;;;;;;;6233068;22;20031;-91
2022/04/07 03:03:12;;;;;;;8.57;5.25;;;;;;;;;;6233853;22;20042;-91
2022/04/07 03:05:39;;;;;;;10.45;5.35;;;;;;;;;;6199907;22;20019;-91
2022/04/07 03:08:07;;;;;;;10.23;6.13;;;;;;;;;;6232648;22;20039;-91
2022/04/07 03:10:35;;;;;;;18.42;6.63;;;;;;;;;;6233271;22;20027;-90
2022/04/07 03:13:03;;;;;;;11.50;6.50;;;;;;;;;;6198164;22;20050;-91
2022/04/07 03:15:31;;;;;;;11.40;6.55;;;;;;;;;;6203417;22;20114;-91
2022/04/07 03:17:59;;;;;;;10.95;6.50;;;;;;;;;;6200355;22;20022;-91
2022/04/07 03:20:27;;;;;;;9.65;6.55;;;;;;;;;;6200198;22;20066;-91
2022/04/07 03:22:56;;;;;;;9.75;6.82;;;;;;;;;;6198490;22;20019;-91
2022/04/07 03:25:30;;;;;;;13.27;7.10;;;;;;;;;;6235944;22;20039;-91
2022/04/07 03:27:59;;;;;;;12.15;7.45;;;;;;;;;;6198006;22;20044;-91
2022/04/07 03:30:27;;;;;;;12.20;7.28;;;;;;;;;;6222899;22;20106;-91
2022/04/07 03:32:55;;;;;;;12.27;7.22;;;;;;;;;;6258324;22;20020;-91
2022/04/07 03:35:23;;;;;;;11.23;7.03;;;;;;;;;;6260806;22;20099;-91
2022/04/07 03:38:07;;;;;;;12.88;7.60;;;;;;;;;;6198041;22;20016;-90
2022/04/07 03:40:35;;;;;;;10.63;6.97;;;;;;;;;;6251505;22;20380;-90
2022/04/07 03:43:04;;;;;;;13.02;8.50;;;;;;;;;;6226290;22;20043;-91
2022/04/07 03:45:57;;;;;;;13.77;7.07;;;;;;;;;;6201151;22;20817;-91
2022/04/07 03:48:25;;;;;;;12.93;7.10;;;;;;;;;;6224989;22;20016;-91
2022/04/07 03:50:56;;;;;;;10.52;6.95;;;;;;;;;;6199831;22;20043;-91
2022/04/07 03:53:23;;;;;;;10.32;6.90;;;;;;;;;;6234872;22;20089;-91
2022/04/07 03:55:51;;;;;;;10.77;6.75;;;;;;;;;;6201915;22;20035;-91
2022/04/07 03:58:19;;;;;;;10.40;6.55;;;;;;;;;;6199637;22;20022;-91
2022/04/07 04:00:47;;;;;;;11.13;6.28;;;;;;;;;;6235733;22;20027;-91
2022/04/07 04:03:20;;;;;;;12.27;5.90;;;;;;;;;;6200660;22;20073;-90
2022/04/07 04:06:19;;;;;;;8.50;5.82;;;;;;;;;;6227738;22;20039;-91
2022/04/07 04:08:45;;;;;;;10.82;5.68;;;;;;;;;;6225440;22;20020;-91
2022/04/07 04:11:13;;;;;;;8.70;5.75;;;;;;;;;;6200987;22;20019;-91
2022/04/07 04:13:47;;;;;;;10.98;6.13;;;;;;;;;;6261930;22;20020;-91
2022/04/07 04:16:17;;;;;;;10.90;6.10;;;;;;;;;;6237214;22;20012;-91
2022/04/07 04:18:47;;;;;;;12.25;5.95;;;;;;;;;;6202449;22;20030;-91
2022/04/07 04:21:23;;;;;;;10.55;4.88;;;;;;;;;;6202513;22;20499;-90
2022/04/07 04:23:52;;;;;;;9.07;5.10;;;;;;;;;;6201792;22;20406;-90
2022/04/07 04:26:33;;;;;;;9.95;4.60;;;;;;;;;;6250675;22;20028;-91
2022/04/07 04:29:04;;;;;;;6.55;4.60;;;;;;;;;;6224048;22;20094;-91
2022/04/07 04:31:46;;;;;;;8.05;4.70;;;;;;;;;;6252667;22;20102;-91
2022/04/07 04:34:17;;;;;;;9.48;4.82;;;;;;;;;;6235635;22;20016;-91
2022/04/07 04:36:51;;;;;;;6.63;4.55;;;;;;;;;;6249728;22;20027;-91
2022/04/07 04:39:19;;;;;;;7.47;4.50;;;;;;;;;;6199181;22;20016;-91
2022/04/07 04:41:47;;;;;;;7.57;4.32;;;;;;;;;;6223892;22;20015;-91
2022/04/07 04:44:19;;;;;;;6.43;4.15;;;;;;;;;;6224476;22;20070;-90
2022/04/07 04:46:54;;;;;;;7.07;4.53;;;;;;;;;;6226993;22;20024;-91
2022/04/07 04:49:21;;;;;;;6.70;3.80;;;;;;;;;;6200961;22;20020;-91
2022/04/07 04:51:49;;;;;;;7.30;4.30;;;;;;;;;;6235250;22;20016;-90
2022/04/07 04:54:35;;;;;;;6.93;4.20;;;;;;;;;;6201064;22;20019;-90
2022/04/07 04:57:04;;;;;;;5.70;3.80;;;;;;;;;;6199557;22;20043;-90
2022/04/07 04:59:32;;;;;;;8.07;4.45;;;;;;;;;;6223678;22;20015;-90
2022/04/07 05:02:00;;;;;;;7.68;4.50;;;;;;;;;;6234367;22;20081;-90
2022/04/07 05:04:54;;;;;;;10.45;4.85;;;;;;;;;;6232389;22;20030;-89
2022/04/07 05:07:21;;;;;;;8.18;4.32;;;;;;;;;;6219488;22;20027;-90
2022/04/07 05:09:54;;;;;;;6.65;4.90;;;;;;;;;;6199278;22;20745;-90
2022/04/07 05:12:21;;;;;;;7.88;4.72;;;;;;;;;;6223782;22;20030;-89
2022/04/07 05:14:58;;;;;;;7.38;4.90;;;;;;;;;;6201024;22;20024;-90
2022/04/07 05:17:25;;;;;;;8.48;4.95;;;;;;;;;;6223670;22;20098;-91
2022/04/07 05:19:56;;;;;;;9.50;5.75;;;;;;;;;;6234782;22;20015;-90
2022/04/07 05:22:23;;;;;;;9.63;5.13;;;;;;;;;;6193328;23;20024;-90
2022/04/07 05:25:21;;;;;;;12.38;5.07;;;;;;;;;;6219337;22;20047;-91
2022/04/07 05:28:11;;;;;;;11.63;4.90;;;;;;;;;;6159226;23;20017;-91
2022/04/07 05:30:39;;;;;;;8.02;5.05;;;;;;;;;;6133821;23;20029;-92
2022/04/07 05:33:25;;;;;;;8.57;5.07;;;;;;;;;;6152718;23;20030;-90
2022/04/07 05:36:02;;;;;;;8.70;5.45;;;;;;;;;;6132155;23;20398;-89
2022/04/07 05:38:31;;;;;;;7.80;4.50;;;;;;;;;;6167852;23;20017;-91
2022/04/07 05:40:59;;;;;;;8.13;5.50;;;;;;;;;;6133917;23;20033;-90
2022/04/07 05:43:29;;;;;;;9.20;4.70;;;;;;;;;;6134851;23;20067;-90
2022/04/07 05:50:36;;;;;;;5.82;4.00;;;;;;;;;;6265988;22;20027;-78
2022/04/07 05:53:04;;;;;;;7.00;4.00;;;;;;;;;;6284494;22;20020;-78
2022/04/07 05:55:32;;;;;;;6.40;3.40;;;;;;;;;;6284462;22;20533;-78
2022/04/07 05:58:03;;;;;;;7.07;4.35;;;;;;;;;;6281107;22;20070;-78
2022/04/07 06:00:32;;;;;;;11.85;4.43;;;;;;;;;;6279897;22;20023;-78
2022/04/07 06:02:59;;;;;;;7.28;3.50;;;;;;;;;;6278972;22;20668;-78
2022/04/07 06:05:27;;;;;;;6.80;3.80;;;;;;;;;;6279547;22;20023;-77
2022/04/07 06:08:00;;;;;;;8.43;3.83;;;;;;;;;;6268144;22;20102;-79
2022/04/07 06:10:28;;;;;;;12.23;4.55;;;;;;;;;;6279206;22;20019;-76
2022/04/07 06:12:55;;;;;;;6.75;4.13;;;;;;;;;;6281188;22;20061;-76
2022/04/07 06:15:24;;;;;;;9.10;4.28;;;;;;;;;;6281157;22;20023;-77
2022/04/07 06:17:54;;;;;;;6.55;4.10;;;;;;;;;;6280898;22;20016;-76
2022/04/07 06:20:21;;;;;;;8.10;4.50;;;;;;;;;;6280443;22;20065;-76
2022/04/07 06:22:49;;;;;;;7.07;4.28;;;;;;;;;;6280729;22;20020;-77
2022/04/07 06:25:17;;;;;;;6.90;4.15;;;;;;;;;;6280565;22;20067;-77
2022/04/07 06:27:47;;;;;;;6.38;4.20;;;;;;;;;;6279962;22;20062;-76
2022/04/07 06:30:17;;;;;;;8.98;4.82;;;;;;;;;;6280797;22;20019;-76
2022/04/07 06:32:49;;;;;;;7.68;4.47;;;;;;;;;;6275319;22;20019;-76
2022/04/07 06:35:17;;;;;;;9.02;4.45;;;;;;;;;;6280542;22;20456;-76
2022/04/07 06:37:49;;;;;;;7.18;4.80;;;;;;;;;;6279605;22;20030;-76
2022/04/07 06:40:22;;;;;;;8.40;5.38;;;;;;;;;;6279999;22;20019;-76
2022/04/07 06:42:50;;;;;;;7.05;4.78;;;;;;;;;;6279462;22;20016;-76
2022/04/07 06:45:24;;;;;;;9.10;4.90;;;;;;;;;;6276941;22;20030;-76
2022/04/07 06:47:52;;;;;;;9.65;4.55;;;;;;;;;;6266728;22;20027;-76
2022/04/07 06:50:20;;;;;;;9.32;4.55;;;;;;;;;;6279408;22;20805;-75
2022/04/07 06:52:47;;;;;;;8.02;5.03;;;;;;;;;;6277413;22;20023;-76
2022/04/07 06:55:16;;;;;;;6.70;4.55;;;;;;;;;;6279892;22;20042;-75
2022/04/07 06:58:03;;;;;;;9.82;5.03;;;;;;;;;;6277803;22;20019;-76
2022/04/07 07:00:49;;;;;;;9.00;4.68;;;;;;;;;;6279517;22;20019;-76
2022/04/07 07:03:17;;;;;;;10.23;4.40;;;;;;;;;;6278828;22;20030;-75
2022/04/07 07:05:45;;;;;;;9.38;4.22;;;;;;;;;;6278960;22;20022;-76
2022/04/07 07:08:20;;;;;;;10.57;4.50;;;;;;;;;;6278135;22;20102;-76
2022/04/07 07:10:49;;;;;;;12.52;4.75;;;;;;;;;;6279843;22;20608;-76
2022/04/07 07:13:17;;;;;;;7.72;4.30;;;;;;;;;;6278389;22;20023;-76
2022/04/07 07:15:52;;;;;;;9.65;4.18;;;;;;;;;;6278814;22;20024;-75
2022/04/07 07:18:19;;;;;;;12.57;4.78;;;;;;;;;;6277681;22;20020;-76
2022/04/07 07:20:47;;;;;;;7.75;3.45;;;;;;;;;;6278107;22;20030;-75
2022/04/07 07:23:15;;;;;;;7.07;3.80;;;;;;;;;;6278187;22;20065;-76
2022/04/07 07:25:44;;;;;;;8.45;3.38;;;;;;;;;;6268789;22;20134;-76
2022/04/07 07:28:11;;;;;;;7.10;3.70;;;;;;;;;;6279117;22;20023;-76
2022/04/07 07:30:39;;;;;;;10.82;3.50;;;;;;;;;;6277597;22;20034;-76
2022/04/07 07:33:10;;;;;;;8.00;3.70;;;;;;;;;;6279220;22;20043;-76
2022/04/07 07:35:37;;;;;;;8.50;3.35;;;;;;;;;;6280547;22;20019;-76
2022/04/07 07:38:07;;;;;;;7.50;3.28;;;;;;;;;;6276381;22;20102;-76
2022/04/07 07:40:35;;;;;;;9.18;3.50;;;;;;;;;;6278023;22;20035;-76
2022/04/07 07:43:04;;;;;;;8.10;3.30;;;;;;;;;;6276893;22;20466;-76
2022/04/07 07:45:33;;;;;;;6.65;3.17;;;;;;;;;;6279117;22;20071;-77
2022/04/07 07:48:20;;;;;;;4.95;2.88;;;;;;;;;;6278884;22;20123;-76
2022/04/07 07:50:47;;;;;;;5.18;3.05;;;;;;;;;;6278579;22;20055;-76
2022/04/07 07:53:18;;;;;;;5.88;2.97;;;;;;;;;;6279066;22;20621;-76
2022/04/07 07:55:46;;;;;;;7.43;3.08;;;;;;;;;;6277794;22;20073;-76
2022/04/07 07:58:13;;;;;;;10.93;3.17;;;;;;;;;;6277356;22;20016;-77
2022/04/07 08:00:41;;;;;;;8.25;3.08;;;;;;;;;;6278897;22;20094;-76
2022/04/07 08:03:09;;;;;;;6.15;2.80;;;;;;;;;;6267398;22;20027;-76
2022/04/07 08:05:37;;;;;;;12.90;2.75;;;;;;;;;;6270306;22;20023;-76
2022/04/07 08:08:05;;;;;;;6.68;3.20;;;;;;;;;;6277077;22;20736;-77
2022/04/07 08:10:33;;;;;;;8.95;2.90;;;;;;;;;;6279616;22;20077;-76
2022/04/07 08:13:01;;;;;;;6.20;2.80;;;;;;;;;;6278207;22;20016;-77
2022/04/07 08:15:31;;;;;;;9.00;3.05;;;;;;;;;;6279117;22;20019;-76
2022/04/07 08:17:57;;;;;;;6.30;2.80;;;;;;;;;;6267941;22;20400;-76
2022/04/07 08:20:25;;;;;;;8.88;3.58;;;;;;;;;;6279657;22;20042;-76
2022/04/07 08:22:53;;;;;;;9.40;3.05;;;;;;;;;;6276066;22;20447;-77
2022/04/07 08:25:21;;;;;;;6.97;3.38;;;;;;;;;;6279626;22;20094;-77
2022/04/07 08:27:50;;;;;;;7.72;3.20;;;;;;;;;;6280296;22;20553;-76
2022/04/07 08:30:17;;;;;;;7.10;2.97;;;;;;;;;;6281216;22;20015;-77
2022/04/07 08:32:45;;;;;;;8.98;3.05;;;;;;;;;;6278606;22;20019;-77
2022/04/07 08:35:13;;;;;;;5.97;3.08;;;;;;;;;;6280968;22;20020;-77
2022/04/07 08:37:41;;;;;;;5.88;2.70;;;;;;;;;;6279990;22;20039;-77
2022/04/07 08:40:09;;;;;;;6.50;2.92;;;;;;;;;;6245657;22;20019;-77
2022/04/07 08:42:38;;;;;;;7.57;2.60;;;;;;;;;;6269610;22;20026;-77
2022/04/07 08:45:06;;;;;;;7.05;2.45;;;;;;;;;;6281702;22;20111;-77
2022/04/07 08:47:34;;;;;;;7.18;2.60;;;;;;;;;;6279519;22;20362;-77
2022/04/07 08:50:05;;;;;;;6.63;2.75;;;;;;;;;;6281459;22;20070;-76
2022/04/07 08:52:35;;;;;;;5.93;2.30;;;;;;;;;;6278488;22;20046;-77
2022/04/07 08:55:05;;;;;;;9.55;2.75;;;;;;;;;;6280984;22;20354;-76
2022/04/07 08:57:35;;;;;;;8.63;2.55;;;;;;;;;;6279799;22;20455;-76
2022/04/07 09:00:04;;;;;;;7.70;2.42;;;;;;;;;;6280401;22;20026;-77
2022/04/07 09:02:31;;;;;;;7.07;3.10;;;;;;;;;;6278324;22;20023;-76
2022/04/07 09:04:59;;;;;;;8.35;2.85;;;;;;;;;;6281285;22;20020;-76
2022/04/07 09:07:32;;;;;;;4.75;2.10;;;;;;;;;;6280100;22;20019;-77
2022/04/07 09:10:01;;;;;;;6.53;2.20;;;;;;;;;;6281802;22;20119;-77
2022/04/07 09:12:30;;;;;;;6.88;1.95;;;;;;;;;;6278983;22;20026;-76
2022/04/07 09:14:59;;;;;;;3.00;1.00;;;;;;;;;;6280553;22;20047;-76
2022/04/07 09:17:31;;;;;;;2.22;1.00;;;;;;;;;;6267045;22;20016;-76
2022/04/07 09:19:59;;;;;;;3.75;0.75;;;;;;;;;;6271337;22;20703;-76
2022/04/07 09:22:31;;;;;;;2.25;0.82;;;;;;;;;;6280192;22;20019;-76
2022/04/07 09:25:06;;;;;;;2.72;0.60;;;;;;;;;;6268548;22;20027;-76
2022/04/07 09:27:38;;;;;;;0.82;0.40;;;;;;;;;;6280367;22;20016;-76
2022/04/07 09:30:08;;;;;;;1.80;0.63;;;;;;;;;;6280133;22;20015;-76
2022/04/07 09:32:44;;;;;;;2.75;0.80;;;;;;;;;;6278076;22;20304;-76
2022/04/07 09:35:12;;;;;;;1.33;0.45;;;;;;;;;;6244244;22;20028;-76
2022/04/07 09:37:41;;;;;;;3.75;0.60;;;;;;;;;;6280336;22;20020;-76
2022/04/07 09:40:14;;;;;;;2.28;0.60;;;;;;;;;;6271894;22;20666;-76
2022/04/07 09:42:42;;;;;;;1.65;0.50;;;;;;;;;;6280936;22;20456;-77
2022/04/07 09:45:12;;;;;;;1.48;0.60;;;;;;;;;;6271821;22;20024;-77
2022/04/07 09:47:43;;;;;;;2.40;0.80;;;;;;;;;;6280298;22;20026;-77
2022/04/07 09:50:23;;;;;;;5.38;1.10;;;;;;;;;;6280129;22;20028;-77
2022/04/07 09:52:56;;;;;;;2.47;0.57;;;;;;;;;;6278682;22;20020;-77
2022/04/07 09:55:29;;;;;;;1.38;0.45;;;;;;;;;;6281956;22;20030;-77
2022/04/07 09:58:00;;;;;;;2.10;0.30;;;;;;;;;;6280213;22;20358;-77
2022/04/07 10:00:28;;;;;;;3.00;0.60;;;;;;;;;;6269194;22;20043;-77
2022/04/07 10:02:57;;;;;;;2.42;0.82;;;;;;;;;;6279828;22;20023;-77
2022/04/07 10:05:25;;;;;;;1.15;0.40;;;;;;;;;;6270678;22;20058;-77
2022/04/07 10:07:56;;;;;;;1.08;0.68;;;;;;;;;;6278979;22;20019;-77
2022/04/07 10:10:26;;;;;;;2.35;0.80;;;;;;;;;;6281683;22;20028;-77
2022/04/07 10:12:57;;;;;;;1.73;0.57;;;;;;;;;;6280139;22;20359;-77
2022/04/07 10:15:26;;;;;;;1.50;0.70;;;;;;;;;;6270821;22;20065;-79
2022/04/07 10:17:56;;;;;;;0.52;0.38;;;;;;;;;;6279300;22;20352;-77
2022/04/07 10:20:35;;;;;;;2.45;0.70;;;;;;;;;;6268753;22;20032;-77
2022/04/07 10:23:09;;;;;;;1.70;0.70;;;;;;;;;;6279012;22;20094;-77
2022/04/07 10:25:46;;;;;;;1.33;0.47;;;;;;;;;;6269552;22;20066;-77
2022/04/07 10:28:13;;;;;;;2.53;0.50;;;;;;;;;;6278904;22;20024;-77
2022/04/07 10:30:49;;;;;;;1.55;0.63;;;;;;;;;;6280475;22;20030;-77
2022/04/07 10:33:32;;;;;;;1.98;0.73;;;;;;;;;;6277944;22;20439;-77
2022/04/07 10:36:00;;;;;;;1.38;0.60;;;;;;;;;;6270036;22;20328;-77
2022/04/07 10:38:39;;;;;;;2.47;0.80;;;;;;;;;;6270271;22;20019;-77
2022/04/07 10:41:08;;;;;;;1.10;0.50;;;;;;;;;;6271294;22;20038;-77
2022/04/07 10:43:40;;;;;;;1.08;0.50;;;;;;;;;;6281600;22;20015;-77
2022/04/07 10:46:16;;;;;;;2.88;0.77;;;;;;;;;;6284696;22;20023;-77
2022/04/07 10:49:00;;;;;;;3.47;1.15;;;;;;;;;;6290479;22;20080;-77
2022/04/07 10:51:39;;;;;;;1.80;0.80;;;;;;;;;;6281699;22;20015;-77
2022/04/07 10:54:07;;;;;;;1.15;0.57;;;;;;;;;;6278155;22;20020;-77
2022/04/07 10:56:36;;;;;;;0.85;0.52;;;;;;;;;;6280538;22;20042;-77
2022/04/07 10:59:29;;;;;;;2.35;0.80;;;;;;;;;;6278746;22;20027;-77
2022/04/07 11:02:00;;;;;;;4.18;0.98;;;;;;;;;;6278959;22;20019;-77
2022/04/07 11:04:31;;;;;;;4.00;0.90;;;;;;;;;;6269555;22;20022;-77
2022/04/07 11:07:13;;;;;;;3.28;0.90;;;;;;;;;;6279227;22;20023;-77
2022/04/07 11:09:48;;;;;;;4.10;1.35;;;;;;;;;;6269687;22;20047;-77
2022/04/07 11:12:28;;;;;;;2.33;1.00;;;;;;;;;;6270526;22;20020;-77
2022/04/07 11:15:01;;;;;;;1.85;0.70;;;;;;;;;;6279318;22;20485;-77
2022/04/07 11:17:34;;;;;;;1.75;0.68;;;;;;;;;;6267960;22;20027;-77
2022/04/07 11:20:02;;;;;;;2.88;0.95;;;;;;;;;;6281071;22;20016;-77
2022/04/07 11:22:58;;;;;;;2.83;0.70;;;;;;;;;;6278427;22;20043;-78
2022/04/07 11:25:33;;;;;;;3.08;2.35;;;;;;;;;;6280391;22;20020;-77
2022/04/07 11:28:01;;;;;;;1.95;0.73;;;;;;;;;;6278355;22;20459;-77
2022/04/07 11:31:04;;;;;;;1.48;0.80;;;;;;;;;;6279872;22;20015;-77
2022/04/07 11:33:39;;;;;;;2.20;1.10;;;;;;;;;;6154577;23;20044;-78
2022/04/07 11:36:10;;;;;;;3.25;1.15;;;;;;;;;;6155515;23;20029;-78
2022/04/07 11:38:44;;;;;;;3.88;1.38;;;;;;;;;;6155364;23;20805;-78
2022/04/07 11:41:16;;;;;;;2.65;1.25;;;;;;;;;;6156114;23;20055;-78
2022/04/07 11:43:48;;;;;;;5.03;1.63;;;;;;;;;;6155815;23;20033;-77
2022/04/07 11:46:25;;;;;;;3.40;1.50;;;;;;;;;;6155691;23;20084;-77
2022/04/07 11:49:00;;;;;;;5.43;1.50;;;;;;;;;;6156840;23;20072;-77
2022/04/07 11:51:33;;;;;;;3.63;1.30;;;;;;;;;;6146196;23;20025;-78
2022/04/07 11:53:59;;;;;;;3.22;1.45;;;;;;;;;;6155941;23;20030;-78
2022/04/07 11:56:31;;;;;;;4.45;1.60;;;;;;;;;;6154302;23;20033;-78
2022/04/07 11:59:07;;;;;;;2.40;1.63;;;;;;;;;;6155412;23;20025;-77
2022/04/07 12:01:37;;;;;;;2.38;1.10;;;;;;;;;;6146158;23;20021;-78
2022/04/07 12:04:09;;;;;;;3.28;1.42;;;;;;;;;;6158340;23;20021;-78
2022/04/07 12:06:46;;;;;;;4.15;1.77;;;;;;;;;;6157937;23;20025;-78
2022/04/07 12:09:16;;;;;;;6.15;1.48;;;;;;;;;;6223782;22;20019;-78
2022/04/07 12:11:45;;;;;;;3.17;1.30;;;;;;;;;;6273160;22;20058;-77
2022/04/07 12:14:15;;;;;;;4.65;1.85;;;;;;;;;;6283533;22;20500;-77
2022/04/07 12:16:45;;;;;;;3.92;1.45;;;;;;;;;;6281282;22;20405;-77
2022/04/07 12:19:14;;;;;;;4.35;1.35;;;;;;;;;;6288062;22;20019;-78
2022/04/07 12:21:58;;;;;;;4.00;1.77;;;;;;;;;;6279097;22;20493;-78
2022/04/07 12:24:27;;;;;;;4.68;1.73;;;;;;;;;;6286797;22;20099;-78
2022/04/07 12:27:00;;;;;;;5.15;1.60;;;;;;;;;;6283589;22;20030;-78
2022/04/07 12:29:31;;;;;;;5.43;1.92;;;;;;;;;;6284324;22;20027;-78
2022/04/07 12:32:03;;;;;;;4.10;1.63;;;;;;;;;;6285377;22;20023;-78
2022/04/07 12:34:32;;;;;;;6.63;1.55;;;;;;;;;;6288530;22;20054;-78
2022/04/07 12:37:00;;;;;;;4.50;2.20;;;;;;;;;;6288244;22;20522;-78
2022/04/07 12:39:34;;;;;;;6.35;1.85;;;;;;;;;;6288577;22;20110;-78
2022/04/07 12:42:04;;;;;;;4.47;1.90;;;;;;;;;;6288664;22;20324;-78
2022/04/07 12:44:33;;;;;;;4.07;1.80;;;;;;;;;;6287878;22;20122;-78
2022/04/07 12:47:08;;;;;;;7.35;1.80;;;;;;;;;;6284585;22;20019;-78
2022/04/07 12:49:37;;;;;;;3.33;1.60;;;;;;;;;;6270239;22;20110;-78
2022/04/07 12:52:14;;;;;;;3.05;1.48;;;;;;;;;;6280644;22;20060;-80
2022/04/07 12:55:01;;;;;;;5.47;1.95;;;;;;;;;;6280489;22;20097;-79
2022/04/07 12:57:51;;;;;;;3.15;1.30;;;;;;;;;;6281036;22;20033;-79
2022/04/07 13:00:35;;;;;;;8.65;1.90;;;;;;;;;;6279484;22;20361;-79
2022/04/07 13:03:12;;;;;;;3.65;1.23;;;;;;;;;;6279374;22;20024;-78
2022/04/07 13:05:39;;;;;;;5.05;1.85;;;;;;;;;;6281458;22;20700;-78
2022/04/07 13:08:09;;;;;;;4.07;1.58;;;;;;;;;;6278259;22;20121;-79
2022/04/07 13:10:40;;;;;;;4.05;1.60;;;;;;;;;;6280067;22;20019;-79
2022/04/07 13:13:07;;;;;;;6.75;1.90;;;;;;;;;;6280398;22;20023;-79
2022/04/07 13:15:36;;;;;;;7.82;1.67;;;;;;;;;;6270678;22;20020;-79
2022/04/07 13:18:03;;;;;;;5.00;1.67;;;;;;;;;;6275236;22;20024;-79
2022/04/07 13:20:31;;;;;;;3.67;1.50;;;;;;;;;;6280479;22;20027;-79
2022/04/07 13:22:59;;;;;;;5.57;1.60;;;;;;;;;;6278870;22;20019;-79
2022/04/07 13:25:27;;;;;;;4.55;1.90;;;;;;;;;;6281507;22;20022;-79
2022/04/07 13:27:55;;;;;;;4.35;1.73;;;;;;;;;;6279050;22;20015;-79
2022/04/07 13:30:25;;;;;;;4.15;1.70;;;;;;;;;;6278016;22;20019;-79
2022/04/07 13:32:53;;;;;;;7.28;2.10;;;;;;;;;;6278548;22;20073;-79
2022/04/07 13:35:21;;;;;;;6.47;2.10;;;;;;;;;;6279874;22;20020;-79
2022/04/07 13:37:51;;;;;;;5.65;1.83;;;;;;;;;;6278574;22;20016;-79
2022/04/07 13:40:20;;;;;;;5.43;2.03;;;;;;;;;;6280321;22;20016;-80
2022/04/07 13:42:55;;;;;;;5.05;2.40;;;;;;;;;;6279486;22;20344;-78
2022/04/07 13:45:23;;;;;;;7.55;2.28;;;;;;;;;;6279788;22;20514;-78
2022/04/07 13:47:51;;;;;;;5.90;2.28;;;;;;;;;;6279848;22;20020;-78
2022/04/07 13:50:19;;;;;;;4.28;2.20;;;;;;;;;;6280715;22;20026;-76
2022/04/07 13:52:47;;;;;;;4.57;2.30;;;;;;;;;;6278952;22;20020;-77
2022/04/07 13:55:15;;;;;;;4.05;1.70;;;;;;;;;;6278555;22;20024;-77
2022/04/07 13:57:43;;;;;;;4.40;2.08;;;;;;;;;;6280134;22;20069;-77
2022/04/07 14:00:12;;;;;;;4.90;2.40;;;;;;;;;;6283121;22;20110;-77
2022/04/07 14:02:39;;;;;;;5.85;1.95;;;;;;;;;;6268326;22;20020;-77
2022/04/07 14:05:08;;;;;;;2.78;1.55;;;;;;;;;;6271417;22;20098;-77
2022/04/07 14:07:35;;;;;;;3.70;1.67;;;;;;;;;;6278945;22;20638;-77
2022/04/07 14:10:04;;;;;;;7.00;2.10;;;;;;;;;;6280164;22;20027;-77
2022/04/07 14:12:31;;;;;;;5.90;1.38;;;;;;;;;;6278396;22;20114;-77
2022/04/07 14:14:59;;;;;;;8.00;1.70;;;;;;;;;;6281930;22;20512;-77
2022/04/07 14:17:27;;;;;;;4.13;1.52;;;;;;;;;;6279602;22;20020;-76
2022/04/07 14:19:55;;;;;;;5.22;1.60;;;;;;;;;;6279059;22;20016;-77
2022/04/07 14:22:23;;;;;;;3.72;1.40;;;;;;;;;;6278357;22;20034;-77
2022/04/07 14:24:52;;;;;;;4.32;1.38;;;;;;;;;;6280113;22;20110;-77
2022/04/07 14:27:19;;;;;;;4.63;1.23;;;;;;;;;;6278208;22;20028;-77
2022/04/07 14:29:47;;;;;;;3.40;1.48;;;;;;;;;;6277632;22;20016;-76
2022/04/07 14:32:15;;;;;;;3.38;1.40;;;;;;;;;;6278133;22;20073;-77
2022/04/07 14:34:43;;;;;;;3.78;1.58;;;;;;;;;;6278661;22;20051;-77
2022/04/07 14:37:12;;;;;;;3.35;1.30;;;;;;;;;;6269427;22;20020;-77
2022/04/07 14:39:39;;;;;;;3.13;1.38;;;;;;;;;;6276839;22;20019;-77
2022/04/07 14:42:07;;;;;;;5.72;1.52;;;;;;;;;;6278728;22;20354;-77
2022/04/07 14:44:36;;;;;;;5.68;1.48;;;;;;;;;;6280292;22;20023;-77
2022/04/07 14:47:06;;;;;;;6.30;1.85;;;;;;;;;;6279084;22;20025;-77
2022/04/07 14:49:33;;;;;;;4.22;1.60;;;;;;;;;;6280271;22;20095;-78
2022/04/07 14:52:12;;;;;;;4.22;1.20;;;;;;;;;;6278974;22;20012;-77
2022/04/07 14:54:42;;;;;;;7.78;2.20;;;;;;;;;;6277269;22;20019;-76
2022/04/07 14:57:09;;;;;;;4.60;1.00;;;;;;;;;;6280463;22;20020;-77
2022/04/07 14:59:37;;;;;;;4.82;1.25;;;;;;;;;;6276852;22;20023;-78
2022/04/07 15:02:05;;;;;;;3.08;1.10;;;;;;;;;;6275791;22;20023;-77
2022/04/07 15:04:33;;;;;;;1.98;0.80;;;;;;;;;;6278911;22;20047;-78
2022/04/07 15:07:01;;;;;;;2.08;0.68;;;;;;;;;;6278916;22;20726;-78
2022/04/07 15:09:30;;;;;;;4.03;0.88;;;;;;;;;;6266969;22;20480;-77
2022/04/07 15:12:00;;;;;;;4.45;0.70;;;;;;;;;;6277012;22;20454;-77
2022/04/07 15:14:27;;;;;;;2.38;0.60;;;;;;;;;;6280700;22;20020;-77
2022/04/07 15:16:56;;;;;;;1.95;0.55;;;;;;;;;;6280187;22;20069;-77